Latest Weather Observations for Casey (Wilkins Runway)*

IDT60801

Issued at 7:31 pm EDT Wednesday 10 February 2016 (issued every 30 minutes, with the page automatically refreshed every 10 minutes)

About weather observations | Map of weather stations | Latest weather observations for ANT | Other Formats
Station Details ID: 300050 Name: WILKINS RUNWAY EAST Lat: -66.68 Lon: 111.53 Height: 753.0 m
Data from the previous 72 hours. | See also: Recent months for locations in Antarctica
Date/Time
EDT
Temp
°C
App
Temp
°C
Dew
Point
Rel
Hum
%
Delta-T
°C
Wind Press
QNH
hPa
Press
MSL
hPa
Rain
since 9 am
mm
Dir
 
Spd
km/h
Gust
km/h
Spd
kts
Gust
kts
10/07:00pm -8.6 -17.6 -12.9 71 - ESE 30 35 16 19 977.6 - -
10/06:24pm -7.9 -17.2 -11.9 73 - SE 32 32 17 17 977.6 - -
10/06:00pm -5.8 -10.6 -11.1 66 - SE 9 13 5 7 977.6 - -
10/05:30pm -5.2 -10.4 -10.7 65 - E 11 13 6 7 977.6 - -
10/05:00pm -5.4 -11.8 -11.3 63 - E 17 17 9 9 977.5 - -
10/04:30pm -5.8 -12.7 -11.1 66 - E 20 22 11 12 977.4 - -
10/04:00pm -6.0 -13.2 -10.2 72 - E 22 26 12 14 977.4 - -
10/03:30pm -6.5 -14.6 -11.6 67 - E 26 30 14 16 977.4 - -
10/03:00pm -7.1 -16.0 -11.4 71 - E 30 33 16 18 977.4 - -
10/02:30pm -7.7 -17.0 -12.0 71 - E 32 37 17 20 977.4 - -
10/02:00pm -8.6 -18.5 -12.5 73 - E 35 41 19 22 977.4 - -
10/01:30pm -8.1 -17.9 -11.4 77 - E 35 43 19 23 977.4 - -
10/01:00pm -8.3 -18.1 -11.8 76 - E 35 41 19 22 977.3 - -
10/12:30pm -8.9 -18.2 -12.7 74 - E 32 37 17 20 977.4 - -
10/12:00pm -8.6 -17.2 -12.9 71 - E 28 37 15 20 977.3 - -
10/11:30am -8.7 -18.0 -12.5 74 - E 32 39 17 21 977.2 - -
10/11:00am -9.5 -19.0 -13.1 75 - E 33 39 18 21 977.0 - -
10/10:30am -10.1 -19.5 -13.5 76 - E 32 37 17 20 977.0 - -
10/10:00am -9.8 -19.7 -13.4 75 - E 35 43 19 23 976.9 - -
10/09:30am -10.2 -19.6 -13.6 76 - E 32 39 17 21 976.7 - -
10/09:00am -10.6 -20.2 -13.7 78 - E 33 41 18 22 976.6 - -
10/08:30am -10.6 -20.2 -14.0 76 - E 33 41 18 22 976.5 - -
10/08:00am -10.6 -20.2 -13.7 78 - E 33 41 18 22 976.2 - -
10/07:30am -9.7 -19.2 -13.0 77 - E 33 39 18 21 976.0 - -
10/07:00am -9.0 -18.5 -12.1 78 - E 33 39 18 21 975.9 - -
10/06:30am -8.6 -17.5 -11.7 78 - E 30 33 16 18 975.9 - -
10/06:00am -8.4 -17.8 -11.4 79 - E 33 37 18 20 975.7 - -
10/05:30am -8.3 -17.7 -11.3 79 - E 33 39 18 21 975.6 - -
10/05:00am -8.2 -18.0 -11.0 80 - E 35 43 19 23 975.5 - -
10/04:30am -8.1 -17.9 -11.1 79 - E 35 41 19 22 975.4 - -
10/04:00am -8.2 -17.6 -11.0 80 - E 33 43 18 23 975.3 - -
10/03:30am -8.0 -18.9 -11.1 78 - ENE 41 48 22 26 975.2 - -
10/03:24am -8.0 -19.3 -11.0 79 - ENE 43 54 23 29 975.2 - -
10/03:00am -7.7 -19.1 -10.2 82 - ENE 44 52 24 28 975.1 - -
10/02:30am -7.7 -18.2 -10.5 80 - ENE 39 46 21 25 974.9 - -
10/02:00am -7.9 -17.1 -10.9 79 - ENE 32 48 17 26 975.1 - -
10/01:30am -7.8 -18.7 -10.8 79 - ENE 41 54 22 29 974.9 - -
10/01:00am -8.0 -18.9 -10.8 80 - ENE 41 50 22 27 974.9 - -
10/12:30am -8.1 -18.6 -11.1 79 - ENE 39 46 21 25 974.7 - -
10/12:00am -7.9 -18.8 -10.7 80 - ENE 41 50 22 27 974.7 - -
 
Date/Time
EDT
Temp
°C
App
Temp
°C
Dew
Point
Rel
Hum
%
Delta-T
°C
Wind Press
QNH
hPa
Press
MSL
hPa
Rain
since 9 am
mm
Dir
 
Spd
km/h
Gust
km/h
Spd
kts
Gust
kts
09/11:30pm -7.8 -19.3 -10.5 81 - E 44 50 24 27 974.6 - -
09/11:00pm -7.5 -18.7 -10.2 81 - E 43 48 23 26 974.7 - -
09/10:30pm -7.3 -18.5 -10.0 81 - ENE 43 50 23 27 974.6 - -
09/09:30pm -7.1 -17.5 -9.8 81 - ENE 39 48 21 26 974.6 - -
09/09:00pm -6.7 -17.1 -9.2 82 - ENE 39 48 21 26 974.5 - -
09/08:56pm -6.7 -17.1 -9.4 81 - ENE 39 48 21 26 974.6 - -
09/08:30pm -6.9 -18.1 -9.3 83 - ENE 43 54 23 29 974.5 - -
09/08:00pm -6.8 -18.0 -9.7 80 - ENE 43 50 23 27 974.5 - -
09/07:30pm -6.8 -17.2 -9.7 80 - ENE 39 50 21 27 974.5 - -
09/07:14pm -6.8 -17.6 -9.7 80 - ENE 41 61 22 33 974.3 - -
09/07:13pm -6.8 -17.2 -9.5 81 - ENE 39 52 21 28 974.6 - -
09/07:00pm -6.9 -17.3 -9.8 80 - E 39 48 21 26 974.6 - -
09/06:59pm -6.9 -17.3 -9.8 80 - E 39 48 21 26 974.7 - -
09/06:42pm -6.7 -17.2 -10.0 77 - E 39 46 21 25 974.8 - -
09/06:30pm -6.7 -17.9 -9.7 79 - ENE 43 50 23 27 974.8 - -
09/06:00pm -6.4 -17.6 -9.6 78 - ENE 43 54 23 29 974.9 - -
09/05:54pm -6.3 -17.1 -9.5 78 - ENE 41 52 22 28 974.8 - -
09/05:36pm -5.9 -16.3 -9.3 77 - ENE 39 48 21 26 975.1 - -
09/05:30pm -5.7 -16.5 -9.2 76 - ENE 41 52 22 28 974.9 - -
09/05:21pm -6.0 -16.4 -9.5 76 - ENE 39 52 21 28 974.9 - -
09/05:00pm -5.8 -16.2 -9.7 74 - ENE 39 48 21 26 975.2 - -
09/04:58pm -5.8 -16.2 -9.8 73 - ENE 39 48 21 26 975.1 - -
09/04:33pm -5.8 -15.8 -9.5 75 - ENE 37 46 20 25 975.3 - -
09/04:30pm -5.9 -16.0 -9.6 75 - ENE 37 44 20 24 975.3 - -
09/04:07pm -6.0 -15.1 -9.5 76 - E 32 43 17 23 975.5 - -
09/04:00pm -5.6 -14.3 -9.5 74 - E 30 35 16 19 975.6 - -
09/03:30pm -6.4 -14.7 -9.4 79 - ENE 28 33 15 18 975.8 - -
09/03:21pm -6.1 -13.7 -9.8 75 - ENE 24 32 13 17 975.8 - -
09/03:00pm -6.2 -14.9 -9.9 75 - ENE 30 35 16 19 975.8 - -
09/02:30pm -6.2 -14.2 -10.1 74 - ENE 26 33 14 18 975.8 - -
09/02:00pm -6.8 -15.2 -10.6 74 - ENE 28 35 15 19 976.0 - -
09/01:30pm -6.7 -16.1 -10.7 73 - ENE 33 41 18 22 976.0 - -
09/01:00pm -8.0 -17.3 -11.8 74 - ENE 32 37 17 20 976.2 - -
09/12:30pm -7.5 -16.7 -11.3 74 - ENE 32 37 17 20 976.5 - -
09/12:00pm -7.8 -16.3 -11.4 75 - E 28 33 15 18 976.6 - -
09/11:30am -9.1 -16.9 -12.1 79 - E 24 30 13 16 976.9 - -
09/11:00am -9.9 -18.1 -13.5 75 - ENE 26 30 14 16 977.1 - -
09/10:30am -10.2 -18.8 -13.4 77 - ENE 28 30 15 16 977.2 - -
09/10:00am -10.8 -19.4 -13.9 78 - ENE 28 32 15 17 977.3 - -
09/09:30am -11.0 -18.9 -13.8 80 - E 24 26 13 14 977.5 - -
09/09:00am -11.8 -19.3 -14.2 82 - E 22 22 12 12 977.5 - -
09/08:42am -12.0 -19.1 -14.6 81 - E 20 22 11 12 977.7 - -
09/08:30am -11.3 -18.4 -13.6 83 - ENE 20 22 11 12 977.7 - -
09/08:00am -11.2 -17.7 -13.1 86 - E 17 19 9 10 977.9 - -
09/07:51am -11.2 -18.1 -13.4 84 - ENE 19 20 10 11 978.0 - -
09/07:48am -11.1 -18.0 -13.3 84 - ENE 19 20 10 11 978.0 - -
09/07:33am -11.2 -18.1 -13.2 85 - ENE 19 20 10 11 978.0 - -
09/07:30am -11.1 -18.0 -13.1 85 - ENE 19 19 10 10 978.0 - -
09/07:00am -10.8 -17.8 -12.8 85 - ENE 20 20 11 11 978.1 - -
09/06:30am -11.1 -18.6 -13.3 84 - ENE 22 24 12 13 978.2 - -
09/06:00am -10.8 -17.8 -12.7 86 - ENE 20 22 11 12 978.4 - -
09/05:30am -10.5 -17.3 -12.2 87 - ENE 19 20 10 11 978.5 - -
09/05:00am -10.5 -17.3 -12.5 85 - ENE 19 20 10 11 978.6 - -
09/04:30am -10.4 -17.2 -12.3 86 - NE 19 20 10 11 978.7 - -
09/04:00am -10.3 -16.7 -12.0 87 - NE 17 20 9 11 978.8 - -
09/03:30am -11.8 -18.9 -13.4 88 - NE 20 20 11 11 978.9 - -
09/03:00am -13.3 -20.5 -15.3 85 - NE 20 22 11 12 979.0 - -
09/02:30am -13.0 -20.2 -14.8 86 - NE 20 20 11 11 979.1 - -
09/02:00am -12.4 -19.5 -14.5 84 - NE 20 24 11 13 979.3 - -
09/01:30am -10.4 -17.4 -12.3 86 - NE 20 20 11 11 979.4 - -
09/01:00am -10.0 -16.8 -11.7 87 - ENE 19 20 10 11 979.5 - -
09/12:30am -10.1 -16.1 -11.7 88 - ENE 15 17 8 9 979.7 - -
09/12:00am -10.5 -16.2 -12.1 88 - ENE 13 13 7 7 980.0 - -
 
Date/Time
EDT
Temp
°C
App
Temp
°C
Dew
Point
Rel
Hum
%
Delta-T
°C
Wind Press
QNH
hPa
Press
MSL
hPa
Rain
since 9 am
mm
Dir
 
Spd
km/h
Gust
km/h
Spd
kts
Gust
kts
08/11:45pm -9.8 -14.3 -11.3 89 - ENE 7 9 4 5 980.0 - -
08/11:30pm -8.9 -13.3 -10.1 91 - E 7 11 4 6 980.1 - -
08/11:25pm -8.8 -13.6 -10.0 91 - E 9 11 5 6 980.1 - -
08/11:00pm -8.4 -12.7 -9.2 94 - E 7 9 4 5 980.2 - -
08/10:30pm -8.3 -12.6 -9.1 94 - ESE 7 9 4 5 980.3 - -
08/10:00pm -8.4 -12.5 -9.3 93 - SE 6 7 3 4 980.4 - -
08/09:30pm -8.3 -12.4 -9.1 94 - SSE 6 7 3 4 980.7 - -
08/09:00pm -8.3 -12.1 -9.2 93 - S 4 6 2 3 980.8 - -
08/08:30pm -8.2 -12.3 -9.0 94 - S 6 6 3 3 980.9 - -
08/08:00pm -8.3 -12.6 -9.2 93 - SW 7 7 4 4 981.0 - -
08/07:30pm -8.2 -12.5 -9.5 90 - NW 7 9 4 5 981.1 - -
08/07:22pm -8.2 -12.9 -9.5 90 - NW 9 13 5 7 981.0 - -
08/07:00pm -8.2 -12.9 -9.5 90 - NW 9 13 5 7 981.1 - -
08/06:30pm -8.2 -12.9 -9.5 90 - NW 9 11 5 6 981.1 - -
08/06:06pm -8.2 -14.1 -9.5 90 - NNW 15 19 8 10 981.2 - -
08/06:00pm -8.1 -14.0 -9.6 89 - NNW 15 19 8 10 981.2 - -
08/05:50pm -8.2 -13.7 -9.5 90 - NNW 13 17 7 9 981.2 - -
08/05:38pm -8.3 -14.2 -9.5 91 - NNW 15 19 8 10 981.2 - -
08/05:30pm -8.3 -14.2 -9.5 91 - NW 15 19 8 10 981.2 - -
08/05:24pm -8.3 -14.2 -9.5 91 - NW 15 19 8 10 981.2 - -
08/05:16pm -8.3 -14.5 -9.5 91 - NW 17 20 9 11 981.2 - -
08/05:00pm -8.1 -14.3 -9.4 90 - NNW 17 20 9 11 981.2 - -
08/04:30pm -8.2 -14.8 -9.8 88 - NW 19 22 10 12 981.2 - -
08/04:29pm -8.2 -14.8 -9.7 89 - NW 19 22 10 12 981.2 - -
08/04:23pm -8.4 -15.1 -9.9 89 - NNW 19 22 10 12 981.2 - -
08/04:00pm -8.4 -15.1 -10.2 87 - NNW 19 22 10 12 981.1 - -
08/03:43pm -8.3 -14.2 -10.2 86 - NW 15 20 8 11 981.2 - -
08/03:30pm -8.5 -15.4 -10.3 87 - NNW 20 24 11 13 981.2 - -
08/03:00pm -8.2 -14.9 -11.0 80 - N 19 26 10 14 981.1 - -
08/02:29pm -7.1 -12.7 -11.3 72 - N 13 17 7 9 981.1 - -
08/02:14pm -7.1 -12.7 -10.9 74 - N 13 15 7 8 981.2 - -
08/02:00pm -7.1 -12.7 -11.1 73 - N 13 - 7 - - - -
08/01:56pm -7.3 -12.9 -11.5 72 - N 13 17 7 9 981.1 - -
08/01:41pm -7.1 -12.7 -11.1 73 - N 13 15 7 8 981.1 - -
08/01:30pm -7.6 -13.6 -11.2 75 - N 15 19 8 10 981.1 - -
08/01:19pm -7.7 -13.7 -11.0 77 - N 15 19 8 10 981.1 - -
08/01:00pm -8.0 -14.4 -11.3 77 - N 17 19 9 10 981.1 - -
08/12:30pm -8.4 -15.3 -11.2 80 - N 20 24 11 13 981.1 - -
08/12:00pm -8.4 -14.4 -11.1 81 - N 15 19 8 10 981.1 - -
08/11:30am -8.4 -14.0 -11.2 80 - NNE 13 17 7 9 980.9 - -
08/11:00am -8.9 -15.3 -11.2 83 - NNE 17 20 9 11 981.0 - -
08/10:30am -9.1 -16.0 -11.1 85 - N 20 26 11 14 981.0 - -
08/10:00am -9.4 -16.2 -11.7 83 - NNE 19 24 10 13 981.0 - -
08/09:30am -9.5 -16.5 -11.7 84 - NNE 20 24 11 13 980.9 - -
08/09:00am -9.5 -16.5 -11.4 86 - NNE 20 24 11 13 980.8 - -
08/08:30am -9.5 -16.4 -11.2 87 - NNE 20 24 11 13 980.8 - -
08/08:00am -9.6 -16.4 -11.3 87 - NNE 19 - 10 - - - -
08/07:58am -9.5 -16.2 -11.1 88 - NNE 19 20 10 11 980.9 - -
08/07:42am -9.4 -16.1 -11.0 88 - NNE 19 20 10 11 980.8 - -
08/07:30am -9.5 -16.2 -11.1 88 - N 19 22 10 12 980.8 - -
08/07:00am -9.3 -16.2 -10.8 89 - N 20 26 11 14 980.5 - -
08/06:44am -9.1 -15.4 -10.4 90 - N 17 20 9 11 980.5 - -

Other Formats:

Comma delimited format used in spreadsheet applications
http://www.bom.gov.au/fwo/IDT60803/IDT60803.89615.axf

JavaScript Object Notation format (JSON) in row-major order
http://www.bom.gov.au/fwo/IDT60803/IDT60803.89615.json